sensor_id;sensor_type;location;lat;lon;timestamp;pressure;altitude;pressure_sealevel;temperature;humidity
4469;BME280;2247;42.666;23.292;2023-03-15T00:01:02;93389.84;;;11.70;37.75
4469;BME280;2247;42.666;23.292;2023-03-15T00:03:29;93392.44;;;11.83;38.15
4469;BME280;2247;42.666;23.292;2023-03-15T00:05:56;93353.53;;;11.44;38.67
4469;BME280;2247;42.666;23.292;2023-03-15T00:08:26;93387.47;;;11.60;38.74
4469;BME280;2247;42.666;23.292;2023-03-15T00:10:53;93382.63;;;11.53;38.81
4469;BME280;2247;42.666;23.292;2023-03-15T00:13:20;93397.31;;;11.45;39.05
4469;BME280;2247;42.666;23.292;2023-03-15T00:15:50;93406.34;;;11.53;38.81
4469;BME280;2247;42.666;23.292;2023-03-15T00:18:20;93393.47;;;11.52;39.22
4469;BME280;2247;42.666;23.292;2023-03-15T00:21:04;93383.38;;;11.31;39.35
4469;BME280;2247;42.666;23.292;2023-03-15T00:23:31;93392.56;;;11.34;39.28
4469;BME280;2247;42.666;23.292;2023-03-15T00:25:58;93394.78;;;11.40;39.44
4469;BME280;2247;42.666;23.292;2023-03-15T00:28:25;93380.06;;;11.48;39.25
4469;BME280;2247;42.666;23.292;2023-03-15T00:31:02;93394.53;;;11.51;39.58
4469;BME280;2247;42.666;23.292;2023-03-15T00:33:30;93390.97;;;11.55;39.30
4469;BME280;2247;42.666;23.292;2023-03-15T00:36:02;93378.41;;;11.52;39.08
4469;BME280;2247;42.666;23.292;2023-03-15T00:38:30;93376.19;;;11.45;39.23
4469;BME280;2247;42.666;23.292;2023-03-15T00:40:58;93384.25;;;11.40;39.44
4469;BME280;2247;42.666;23.292;2023-03-15T00:43:25;93378.34;;;11.43;39.51
4469;BME280;2247;42.666;23.292;2023-03-15T00:45:51;93377.28;;;11.44;39.31
4469;BME280;2247;42.666;23.292;2023-03-15T00:48:19;93375.84;;;11.38;39.46
4469;BME280;2247;42.666;23.292;2023-03-15T00:50:47;93365.72;;;11.32;39.47
4469;BME280;2247;42.666;23.292;2023-03-15T00:53:13;93363.72;;;11.37;39.44
4469;BME280;2247;42.666;23.292;2023-03-15T00:55:40;93361.25;;;11.41;39.19
4469;BME280;2247;42.666;23.292;2023-03-15T00:58:08;93367.00;;;11.43;39.27
4469;BME280;2247;42.666;23.292;2023-03-15T01:00:34;93359.53;;;11.36;39.49
4469;BME280;2247;42.666;23.292;2023-03-15T01:03:02;93351.81;;;11.40;39.50
4469;BME280;2247;42.666;23.292;2023-03-15T01:05:29;93347.66;;;11.48;39.44
4469;BME280;2247;42.666;23.292;2023-03-15T01:07:59;93340.94;;;11.41;39.31
4469;BME280;2247;42.666;23.292;2023-03-15T01:10:27;93342.91;;;11.58;39.16
4469;BME280;2247;42.666;23.292;2023-03-15T01:12:54;93347.09;;;11.59;39.30
4469;BME280;2247;42.666;23.292;2023-03-15T01:15:21;93343.84;;;11.62;38.98
4469;BME280;2247;42.666;23.292;2023-03-15T01:17:48;93344.97;;;11.70;38.93
4469;BME280;2247;42.666;23.292;2023-03-15T01:20:15;93331.19;;;11.73;38.85
4469;BME280;2247;42.666;23.292;2023-03-15T01:22:42;93340.84;;;11.77;38.64
4469;BME280;2247;42.666;23.292;2023-03-15T01:25:10;93333.56;;;11.74;38.88
4469;BME280;2247;42.666;23.292;2023-03-15T01:27:37;93332.16;;;11.77;38.88
4469;BME280;2247;42.666;23.292;2023-03-15T01:30:05;93309.97;;;11.78;38.75
4469;BME280;2247;42.666;23.292;2023-03-15T01:32:32;93294.38;;;11.68;38.72
4469;BME280;2247;42.666;23.292;2023-03-15T01:34:59;93316.66;;;11.84;38.40
4469;BME280;2247;42.666;23.292;2023-03-15T01:37:26;93324.13;;;11.82;39.24
4469;BME280;2247;42.666;23.292;2023-03-15T01:39:53;93321.34;;;11.87;38.77
4469;BME280;2247;42.666;23.292;2023-03-15T01:42:21;93323.25;;;11.95;38.58
4469;BME280;2247;42.666;23.292;2023-03-15T01:44:51;93317.91;;;11.87;38.32
4469;BME280;2247;42.666;23.292;2023-03-15T01:47:20;93322.25;;;11.82;38.97
4469;BME280;2247;42.666;23.292;2023-03-15T01:49:53;93309.03;;;11.74;39.25
4469;BME280;2247;42.666;23.292;2023-03-15T01:52:25;93305.88;;;11.72;38.92
4469;BME280;2247;42.666;23.292;2023-03-15T01:54:59;93293.69;;;11.84;38.85
4469;BME280;2247;42.666;23.292;2023-03-15T01:57:32;93295.75;;;11.96;38.57
4469;BME280;2247;42.666;23.292;2023-03-15T02:00:03;93286.13;;;12.00;38.24
4469;BME280;2247;42.666;23.292;2023-03-15T02:02:37;93287.91;;;12.22;38.26
4469;BME280;2247;42.666;23.292;2023-03-15T02:05:14;93288.78;;;12.00;39.05
4469;BME280;2247;42.666;23.292;2023-03-15T02:07:45;93280.34;;;11.90;39.31
4469;BME280;2247;42.666;23.292;2023-03-15T02:10:17;93280.06;;;11.60;40.00
4469;BME280;2247;42.666;23.292;2023-03-15T02:12:50;93278.38;;;11.64;39.62
4469;BME280;2247;42.666;23.292;2023-03-15T02:15:18;93274.94;;;11.64;39.99
4469;BME280;2247;42.666;23.292;2023-03-15T02:17:46;93269.03;;;11.58;40.20
4469;BME280;2247;42.666;23.292;2023-03-15T02:20:24;93264.50;;;11.50;40.53
4469;BME280;2247;42.666;23.292;2023-03-15T02:22:56;93269.16;;;11.53;40.26
4469;BME280;2247;42.666;23.292;2023-03-15T02:25:31;93262.06;;;11.62;40.36
4469;BME280;2247;42.666;23.292;2023-03-15T02:28:02;93268.59;;;11.65;39.73
4469;BME280;2247;42.666;23.292;2023-03-15T02:30:30;93259.59;;;11.66;40.19
4469;BME280;2247;42.666;23.292;2023-03-15T02:32:58;93258.72;;;11.39;41.21
4469;BME280;2247;42.666;23.292;2023-03-15T02:35:29;93264.78;;;11.49;41.24
4469;BME280;2247;42.666;23.292;2023-03-15T02:37:57;93261.69;;;11.47;41.56
4469;BME280;2247;42.666;23.292;2023-03-15T02:40:27;93263.06;;;11.44;41.53
4469;BME280;2247;42.666;23.292;2023-03-15T02:42:56;93274.41;;;11.44;41.67
4469;BME280;2247;42.666;23.292;2023-03-15T02:45:27;93262.91;;;11.40;41.70
4469;BME280;2247;42.666;23.292;2023-03-15T02:47:56;93231.75;;;11.51;40.65
4469;BME280;2247;42.666;23.292;2023-03-15T02:50:23;93252.56;;;11.53;40.10
4469;BME280;2247;42.666;23.292;2023-03-15T02:52:50;93251.91;;;11.47;40.29
4469;BME280;2247;42.666;23.292;2023-03-15T02:55:18;93258.56;;;11.44;40.40
4469;BME280;2247;42.666;23.292;2023-03-15T02:57:46;93242.53;;;11.32;40.44
4469;BME280;2247;42.666;23.292;2023-03-15T03:00:13;93245.03;;;11.37;40.55
4469;BME280;2247;42.666;23.292;2023-03-15T03:02:43;93240.59;;;11.16;41.24
4469;BME280;2247;42.666;23.292;2023-03-15T03:05:12;93239.22;;;11.18;41.14
4469;BME280;2247;42.666;23.292;2023-03-15T03:07:40;93236.09;;;11.16;41.66
4469;BME280;2247;42.666;23.292;2023-03-15T03:10:09;93222.78;;;11.21;41.56
4469;BME280;2247;42.666;23.292;2023-03-15T03:12:36;93230.81;;;11.16;42.02
4469;BME280;2247;42.666;23.292;2023-03-15T03:15:04;93232.25;;;11.22;41.81
4469;BME280;2247;42.666;23.292;2023-03-15T03:17:31;93222.56;;;11.09;41.54
4469;BME280;2247;42.666;23.292;2023-03-15T03:20:05;93222.84;;;10.77;41.39
4469;BME280;2247;42.666;23.292;2023-03-15T03:22:34;93227.84;;;10.87;41.82
4469;BME280;2247;42.666;23.292;2023-03-15T03:25:01;93224.97;;;10.97;41.74
4469;BME280;2247;42.666;23.292;2023-03-15T03:27:28;93215.03;;;10.94;41.55
4469;BME280;2247;42.666;23.292;2023-03-15T03:29:55;93215.88;;;11.03;41.64
4469;BME280;2247;42.666;23.292;2023-03-15T03:32:22;93215.28;;;11.06;41.58
4469;BME280;2247;42.666;23.292;2023-03-15T03:34:49;93213.03;;;10.99;41.51
4469;BME280;2247;42.666;23.292;2023-03-15T03:37:18;93210.53;;;10.94;42.19
4469;BME280;2247;42.666;23.292;2023-03-15T03:39:45;93207.91;;;10.94;42.56
4469;BME280;2247;42.666;23.292;2023-03-15T03:42:13;93202.47;;;10.91;42.45
4469;BME280;2247;42.666;23.292;2023-03-15T03:44:40;93196.94;;;11.01;42.18
4469;BME280;2247;42.666;23.292;2023-03-15T03:47:07;93195.72;;;11.07;42.42
4469;BME280;2247;42.666;23.292;2023-03-15T03:49:34;93206.00;;;11.17;42.30
4469;BME280;2247;42.666;23.292;2023-03-15T03:52:01;93201.97;;;11.11;42.39
4469;BME280;2247;42.666;23.292;2023-03-15T03:54:29;93195.16;;;11.19;41.96
4469;BME280;2247;42.666;23.292;2023-03-15T03:56:57;93188.13;;;11.05;42.04
4469;BME280;2247;42.666;23.292;2023-03-15T03:59:24;93197.47;;;11.20;41.74
4469;BME280;2247;42.666;23.292;2023-03-15T04:01:50;93177.06;;;11.26;41.87
4469;BME280;2247;42.666;23.292;2023-03-15T04:04:18;93185.25;;;11.24;41.99
4469;BME280;2247;42.666;23.292;2023-03-15T04:06:45;93169.09;;;11.17;42.33
4469;BME280;2247;42.666;23.292;2023-03-15T04:09:12;93174.06;;;11.19;42.71
4469;BME280;2247;42.666;23.292;2023-03-15T04:11:41;93162.94;;;11.30;42.04
4469;BME280;2247;42.666;23.292;2023-03-15T04:14:08;93185.13;;;11.29;42.04
4469;BME280;2247;42.666;23.292;2023-03-15T04:16:35;93177.22;;;11.29;42.23
4469;BME280;2247;42.666;23.292;2023-03-15T04:19:03;93175.22;;;11.35;42.01
4469;BME280;2247;42.666;23.292;2023-03-15T04:21:30;93178.81;;;11.39;42.12
4469;BME280;2247;42.666;23.292;2023-03-15T04:23:57;93181.44;;;11.39;41.72
4469;BME280;2247;42.666;23.292;2023-03-15T04:26:25;93176.72;;;11.27;42.86
4469;BME280;2247;42.666;23.292;2023-03-15T04:28:54;93174.56;;;11.29;43.19
4469;BME280;2247;42.666;23.292;2023-03-15T04:31:21;93169.88;;;11.18;43.70
4469;BME280;2247;42.666;23.292;2023-03-15T04:33:51;93173.91;;;11.15;43.82
4469;BME280;2247;42.666;23.292;2023-03-15T04:36:18;93169.69;;;11.14;43.46
4469;BME280;2247;42.666;23.292;2023-03-15T04:38:45;93160.72;;;11.15;43.86
4469;BME280;2247;42.666;23.292;2023-03-15T04:41:12;93155.88;;;11.09;43.98
4469;BME280;2247;42.666;23.292;2023-03-15T04:43:39;93175.41;;;11.07;43.98
4469;BME280;2247;42.666;23.292;2023-03-15T04:46:07;93159.22;;;10.92;43.74
4469;BME280;2247;42.666;23.292;2023-03-15T04:48:34;93178.66;;;11.04;43.41
4469;BME280;2247;42.666;23.292;2023-03-15T04:51:02;93164.34;;;10.97;43.05
4469;BME280;2247;42.666;23.292;2023-03-15T04:53:29;93165.66;;;11.08;42.77
4469;BME280;2247;42.666;23.292;2023-03-15T04:55:56;93167.25;;;11.18;42.55
4469;BME280;2247;42.666;23.292;2023-03-15T04:58:23;93166.94;;;11.19;42.22
4469;BME280;2247;42.666;23.292;2023-03-15T05:00:51;93151.09;;;11.11;42.21
4469;BME280;2247;42.666;23.292;2023-03-15T05:03:20;93162.84;;;11.44;41.68
4469;BME280;2247;42.666;23.292;2023-03-15T05:05:47;93173.69;;;11.34;41.61
4469;BME280;2247;42.666;23.292;2023-03-15T05:08:14;93171.34;;;11.32;41.35
4469;BME280;2247;42.666;23.292;2023-03-15T05:10:41;93184.19;;;11.25;40.98
4469;BME280;2247;42.666;23.292;2023-03-15T05:13:08;93160.41;;;11.17;40.75
4469;BME280;2247;42.666;23.292;2023-03-15T05:15:38;93167.44;;;11.30;39.39
4469;BME280;2247;42.666;23.292;2023-03-15T05:18:23;93171.59;;;11.22;38.88
4469;BME280;2247;42.666;23.292;2023-03-15T05:20:52;93163.66;;;11.14;38.94
4469;BME280;2247;42.666;23.292;2023-03-15T05:23:31;93164.44;;;11.14;38.78
4469;BME280;2247;42.666;23.292;2023-03-15T05:26:00;93150.09;;;10.98;38.66
4469;BME280;2247;42.666;23.292;2023-03-15T05:28:28;93158.59;;;10.95;38.83
4469;BME280;2247;42.666;23.292;2023-03-15T05:30:56;93137.13;;;11.10;38.75
4469;BME280;2247;42.666;23.292;2023-03-15T05:33:25;93163.38;;;11.24;38.38
4469;BME280;2247;42.666;23.292;2023-03-15T05:35:52;93144.91;;;11.15;37.95
4469;BME280;2247;42.666;23.292;2023-03-15T05:38:20;93149.28;;;11.28;38.12
4469;BME280;2247;42.666;23.292;2023-03-15T05:40:51;93154.81;;;11.58;37.69
4469;BME280;2247;42.666;23.292;2023-03-15T05:43:20;93168.00;;;11.58;36.99
4469;BME280;2247;42.666;23.292;2023-03-15T05:45:47;93152.66;;;11.68;37.48
4469;BME280;2247;42.666;23.292;2023-03-15T05:48:15;93164.44;;;11.71;37.28
4469;BME280;2247;42.666;23.292;2023-03-15T05:50:45;93152.00;;;11.63;37.47
4469;BME280;2247;42.666;23.292;2023-03-15T05:53:12;93149.69;;;11.53;37.35
4469;BME280;2247;42.666;23.292;2023-03-15T05:55:39;93151.56;;;11.61;38.00
4469;BME280;2247;42.666;23.292;2023-03-15T05:58:08;93149.69;;;11.53;38.06
4469;BME280;2247;42.666;23.292;2023-03-15T06:00:40;93158.00;;;11.37;38.41
4469;BME280;2247;42.666;23.292;2023-03-15T06:03:14;93158.22;;;11.10;38.23
4469;BME280;2247;42.666;23.292;2023-03-15T06:05:47;93159.16;;;11.14;38.27
4469;BME280;2247;42.666;23.292;2023-03-15T06:08:17;93150.16;;;11.15;38.62
4469;BME280;2247;42.666;23.292;2023-03-15T06:10:55;93155.03;;;11.30;38.19
4469;BME280;2247;42.666;23.292;2023-03-15T06:13:21;93155.56;;;11.50;37.84
4469;BME280;2247;42.666;23.292;2023-03-15T06:15:49;93137.69;;;11.38;37.93
4469;BME280;2247;42.666;23.292;2023-03-15T06:18:20;93152.63;;;11.51;37.79
4469;BME280;2247;42.666;23.292;2023-03-15T06:23:29;93139.91;;;11.62;37.95
4469;BME280;2247;42.666;23.292;2023-03-15T06:25:56;93166.84;;;11.81;37.79
4469;BME280;2247;42.666;23.292;2023-03-15T06:28:23;93142.78;;;11.91;37.68
4469;BME280;2247;42.666;23.292;2023-03-15T06:41:13;93150.56;;;13.12;35.67
4469;BME280;2247;42.666;23.292;2023-03-15T06:51:27;93130.97;;;13.51;33.99
4469;BME280;2247;42.666;23.292;2023-03-15T07:24:51;93134.22;;;14.81;31.78
4469;BME280;2247;42.666;23.292;2023-03-15T07:27:20;93139.88;;;14.79;32.09
4469;BME280;2247;42.666;23.292;2023-03-15T07:29:47;93134.34;;;14.84;33.61
4469;BME280;2247;42.666;23.292;2023-03-15T07:32:16;93126.09;;;15.10;32.37
4469;BME280;2247;42.666;23.292;2023-03-15T07:34:43;93115.72;;;15.17;32.32
4469;BME280;2247;42.666;23.292;2023-03-15T07:37:10;93109.88;;;15.24;32.81
4469;BME280;2247;42.666;23.292;2023-03-15T07:39:38;93108.75;;;15.37;32.28
4469;BME280;2247;42.666;23.292;2023-03-15T07:42:08;93114.97;;;15.41;31.05
4469;BME280;2247;42.666;23.292;2023-03-15T07:44:35;93129.00;;;15.29;30.81
4469;BME280;2247;42.666;23.292;2023-03-15T07:47:02;93130.75;;;15.13;31.42
4469;BME280;2247;42.666;23.292;2023-03-15T07:49:29;93119.59;;;15.20;30.89
4469;BME280;2247;42.666;23.292;2023-03-15T07:51:58;93124.34;;;15.14;31.16
4469;BME280;2247;42.666;23.292;2023-03-15T07:54:25;93114.44;;;14.78;31.61
4469;BME280;2247;42.666;23.292;2023-03-15T07:56:53;93089.84;;;14.57;32.21
4469;BME280;2247;42.666;23.292;2023-03-15T07:59:22;93109.69;;;14.72;32.38
4469;BME280;2247;42.666;23.292;2023-03-15T08:01:49;93119.06;;;14.81;31.73
4469;BME280;2247;42.666;23.292;2023-03-15T08:04:17;93119.78;;;14.90;31.13
4469;BME280;2247;42.666;23.292;2023-03-15T08:06:43;93117.75;;;14.87;31.99
4469;BME280;2247;42.666;23.292;2023-03-15T08:09:10;93114.06;;;14.68;32.07
4469;BME280;2247;42.666;23.292;2023-03-15T08:11:38;93115.06;;;14.63;32.33
4469;BME280;2247;42.666;23.292;2023-03-15T08:14:12;93112.03;;;14.52;31.72
4469;BME280;2247;42.666;23.292;2023-03-15T08:16:45;93100.00;;;14.55;32.28
4469;BME280;2247;42.666;23.292;2023-03-15T08:19:13;93098.38;;;14.63;31.99
4469;BME280;2247;42.666;23.292;2023-03-15T08:29:41;93097.56;;;14.95;31.79
4469;BME280;2247;42.666;23.292;2023-03-15T08:45:07;93064.19;;;15.06;31.94
4469;BME280;2247;42.666;23.292;2023-03-15T08:47:36;93038.97;;;14.88;32.11
4469;BME280;2247;42.666;23.292;2023-03-15T08:57:48;93079.91;;;15.11;31.81
4469;BME280;2247;42.666;23.292;2023-03-15T09:49:30;93072.41;;;14.56;34.20
4469;BME280;2247;42.666;23.292;2023-03-15T09:52:02;93051.81;;;14.41;34.15
4469;BME280;2247;42.666;23.292;2023-03-15T10:15:49;93066.00;;;13.83;35.37
4469;BME280;2247;42.666;23.292;2023-03-15T10:41:39;93034.84;;;14.33;34.45
4469;BME280;2247;42.666;23.292;2023-03-15T10:54:23;93055.31;;;14.66;34.75
4469;BME280;2247;42.666;23.292;2023-03-15T11:27:51;93020.16;;;14.81;33.69
4469;BME280;2247;42.666;23.292;2023-03-15T11:30:22;93046.28;;;15.03;33.87
4469;BME280;2247;42.666;23.292;2023-03-15T11:45:53;93033.88;;;14.95;38.28
4469;BME280;2247;42.666;23.292;2023-03-15T11:48:25;93028.47;;;14.79;38.20
4469;BME280;2247;42.666;23.292;2023-03-15T12:14:40;93007.13;;;15.24;38.04
4469;BME280;2247;42.666;23.292;2023-03-15T12:25:20;92996.97;;;15.02;39.48
4469;BME280;2247;42.666;23.292;2023-03-15T12:27:49;93005.59;;;15.11;39.86
4469;BME280;2247;42.666;23.292;2023-03-15T12:38:11;92969.69;;;15.14;38.85
4469;BME280;2247;42.666;23.292;2023-03-15T12:53:54;92966.91;;;15.10;38.69
4469;BME280;2247;42.666;23.292;2023-03-15T13:17:04;92962.38;;;15.11;37.50
4469;BME280;2247;42.666;23.292;2023-03-15T13:24:51;92946.56;;;15.14;37.50
4469;BME280;2247;42.666;23.292;2023-03-15T13:29:58;92981.34;;;15.37;36.85
4469;BME280;2247;42.666;23.292;2023-03-15T13:32:29;92983.88;;;15.46;36.51
4469;BME280;2247;42.666;23.292;2023-03-15T13:37:32;92969.41;;;15.55;36.51
4469;BME280;2247;42.666;23.292;2023-03-15T13:40:11;92970.41;;;15.38;36.53
4469;BME280;2247;42.666;23.292;2023-03-15T13:45:16;92971.09;;;15.23;36.69
4469;BME280;2247;42.666;23.292;2023-03-15T13:55:33;92964.59;;;14.72;39.46
4469;BME280;2247;42.666;23.292;2023-03-15T14:11:03;92988.56;;;14.76;41.29
4469;BME280;2247;42.666;23.292;2023-03-15T14:18:41;92982.41;;;14.72;42.05
4469;BME280;2247;42.666;23.292;2023-03-15T14:21:12;92977.06;;;14.59;42.24
4469;BME280;2247;42.666;23.292;2023-03-15T14:23:42;92946.94;;;14.52;42.19
4469;BME280;2247;42.666;23.292;2023-03-15T14:58:31;92959.44;;;15.40;42.55
4469;BME280;2247;42.666;23.292;2023-03-15T15:00:58;92983.78;;;15.54;40.71
4469;BME280;2247;42.666;23.292;2023-03-15T15:11:11;92966.31;;;15.81;38.91
4469;BME280;2247;42.666;23.292;2023-03-15T15:13:41;92948.25;;;15.87;39.08
4469;BME280;2247;42.666;23.292;2023-03-15T15:16:10;92955.56;;;15.90;39.25
4469;BME280;2247;42.666;23.292;2023-03-15T15:21:13;92946.47;;;15.91;39.87
4469;BME280;2247;42.666;23.292;2023-03-15T15:23:44;92951.44;;;15.92;38.43
4469;BME280;2247;42.666;23.292;2023-03-15T15:26:22;92976.56;;;16.23;37.88
4469;BME280;2247;42.666;23.292;2023-03-15T15:34:06;92991.88;;;16.13;37.76
4469;BME280;2247;42.666;23.292;2023-03-15T15:41:44;92985.69;;;15.82;39.00
4469;BME280;2247;42.666;23.292;2023-03-15T15:44:25;92992.94;;;15.45;41.06
4469;BME280;2247;42.666;23.292;2023-03-15T16:00:34;93020.97;;;14.93;44.80
4469;BME280;2247;42.666;23.292;2023-03-15T16:13:44;93044.63;;;14.41;47.61
4469;BME280;2247;42.666;23.292;2023-03-15T16:16:25;93031.53;;;14.24;48.14
4469;BME280;2247;42.666;23.292;2023-03-15T16:49:59;93057.44;;;13.98;51.64
4469;BME280;2247;42.666;23.292;2023-03-15T16:52:26;93046.81;;;13.86;51.08
4469;BME280;2247;42.666;23.292;2023-03-15T16:54:59;93058.38;;;13.81;51.74
4469;BME280;2247;42.666;23.292;2023-03-15T17:05:31;93074.63;;;13.71;51.77
4469;BME280;2247;42.666;23.292;2023-03-15T18:20:24;93152.41;;;13.58;51.30
4469;BME280;2247;42.666;23.292;2023-03-15T18:22:53;93154.94;;;13.54;51.59
4469;BME280;2247;42.666;23.292;2023-03-15T18:25:22;93162.88;;;13.54;52.56
4469;BME280;2247;42.666;23.292;2023-03-15T18:27:49;93147.78;;;13.55;52.82
4469;BME280;2247;42.666;23.292;2023-03-15T18:30:22;93149.53;;;13.42;53.33
4469;BME280;2247;42.666;23.292;2023-03-15T18:32:50;93133.94;;;13.49;52.93
4469;BME280;2247;42.666;23.292;2023-03-15T18:35:24;93156.63;;;13.59;53.27
4469;BME280;2247;42.666;23.292;2023-03-15T18:43:11;93137.06;;;13.05;54.51
4469;BME280;2247;42.666;23.292;2023-03-15T18:45:39;93181.84;;;13.27;55.10
4469;BME280;2247;42.666;23.292;2023-03-15T18:48:06;93172.22;;;13.14;55.48
4469;BME280;2247;42.666;23.292;2023-03-15T19:01:51;93196.50;;;12.98;57.20
4469;BME280;2247;42.666;23.292;2023-03-15T19:04:18;93172.25;;;12.79;57.21
4469;BME280;2247;42.666;23.292;2023-03-15T19:48:08;93245.16;;;13.15;56.33
4469;BME280;2247;42.666;23.292;2023-03-15T20:55:10;93267.59;;;11.83;63.06
4469;BME280;2247;42.666;23.292;2023-03-15T21:05:25;93332.47;;;11.53;64.29
4469;BME280;2247;42.666;23.292;2023-03-15T22:02:15;93409.16;;;9.75;63.08
4469;BME280;2247;42.666;23.292;2023-03-15T22:04:43;93414.53;;;9.84;62.93
4469;BME280;2247;42.666;23.292;2023-03-15T22:07:10;93400.81;;;9.73;62.92
4469;BME280;2247;42.666;23.292;2023-03-15T22:09:37;93420.28;;;9.72;62.56
4469;BME280;2247;42.666;23.292;2023-03-15T22:12:06;93425.41;;;9.64;62.76
4469;BME280;2247;42.666;23.292;2023-03-15T22:14:33;93423.16;;;9.57;62.23
4469;BME280;2247;42.666;23.292;2023-03-15T22:17:00;93429.97;;;9.58;62.61
4469;BME280;2247;42.666;23.292;2023-03-15T22:19:30;93427.84;;;9.60;62.47
4469;BME280;2247;42.666;23.292;2023-03-15T22:21:57;93435.25;;;9.58;61.91
4469;BME280;2247;42.666;23.292;2023-03-15T22:24:25;93440.66;;;9.48;62.16
4469;BME280;2247;42.666;23.292;2023-03-15T22:26:52;93438.94;;;9.57;62.00
4469;BME280;2247;42.666;23.292;2023-03-15T22:29:18;93438.53;;;9.50;62.34
4469;BME280;2247;42.666;23.292;2023-03-15T22:31:46;93449.38;;;9.62;61.88
4469;BME280;2247;42.666;23.292;2023-03-15T22:34:14;93452.94;;;9.53;61.99
4469;BME280;2247;42.666;23.292;2023-03-15T22:36:43;93457.72;;;9.51;62.07
4469;BME280;2247;42.666;23.292;2023-03-15T22:39:10;93448.84;;;9.46;62.05
4469;BME280;2247;42.666;23.292;2023-03-15T22:41:38;93456.78;;;9.60;61.39
4469;BME280;2247;42.666;23.292;2023-03-15T22:44:05;93457.56;;;9.42;61.24
4469;BME280;2247;42.666;23.292;2023-03-15T22:46:32;93458.00;;;9.49;61.28
4469;BME280;2247;42.666;23.292;2023-03-15T22:49:00;93458.34;;;9.42;61.36
4469;BME280;2247;42.666;23.292;2023-03-15T22:51:27;93467.09;;;9.38;60.89
4469;BME280;2247;42.666;23.292;2023-03-15T22:53:56;93461.84;;;9.38;60.44
4469;BME280;2247;42.666;23.292;2023-03-15T22:56:23;93470.94;;;9.27;61.11
4469;BME280;2247;42.666;23.292;2023-03-15T22:58:50;93470.59;;;9.33;61.07
4469;BME280;2247;42.666;23.292;2023-03-15T23:01:19;93442.03;;;9.08;60.96
4469;BME280;2247;42.666;23.292;2023-03-15T23:03:47;93474.94;;;9.24;60.94
4469;BME280;2247;42.666;23.292;2023-03-15T23:06:15;93478.81;;;9.27;60.81
4469;BME280;2247;42.666;23.292;2023-03-15T23:08:43;93479.06;;;9.12;60.63
4469;BME280;2247;42.666;23.292;2023-03-15T23:11:11;93484.31;;;9.12;60.13
4469;BME280;2247;42.666;23.292;2023-03-15T23:13:38;93491.69;;;9.09;60.44
4469;BME280;2247;42.666;23.292;2023-03-15T23:16:06;93491.84;;;9.18;60.58
4469;BME280;2247;42.666;23.292;2023-03-15T23:18:34;93506.47;;;9.05;60.44
4469;BME280;2247;42.666;23.292;2023-03-15T23:21:05;93493.44;;;9.14;60.17
4469;BME280;2247;42.666;23.292;2023-03-15T23:23:32;93509.38;;;8.80;60.69
4469;BME280;2247;42.666;23.292;2023-03-15T23:25:59;93505.25;;;8.74;61.05
4469;BME280;2247;42.666;23.292;2023-03-15T23:28:28;93488.56;;;8.65;61.12
4469;BME280;2247;42.666;23.292;2023-03-15T23:30:58;93507.81;;;8.79;61.05
4469;BME280;2247;42.666;23.292;2023-03-15T23:33:25;93514.38;;;8.82;61.06
4469;BME280;2247;42.666;23.292;2023-03-15T23:35:52;93505.59;;;8.91;60.74
4469;BME280;2247;42.666;23.292;2023-03-15T23:38:19;93516.53;;;8.98;61.16
4469;BME280;2247;42.666;23.292;2023-03-15T23:40:52;93504.84;;;8.86;61.17
4469;BME280;2247;42.666;23.292;2023-03-15T23:43:20;93526.03;;;8.94;60.77
4469;BME280;2247;42.666;23.292;2023-03-15T23:45:53;93513.47;;;8.91;60.69
4469;BME280;2247;42.666;23.292;2023-03-15T23:48:22;93516.97;;;9.05;60.82
4469;BME280;2247;42.666;23.292;2023-03-15T23:50:51;93528.16;;;8.92;60.91
4469;BME280;2247;42.666;23.292;2023-03-15T23:53:19;93524.09;;;8.81;60.99
4469;BME280;2247;42.666;23.292;2023-03-15T23:55:46;93530.19;;;8.77;61.21
4469;BME280;2247;42.666;23.292;2023-03-15T23:58:13;93532.09;;;8.71;60.95
